createdAt,value
2019-03-06T00:00:23.548Z,69.91
2019-03-06T00:01:35.558Z,69.91
2019-03-06T00:02:45.167Z,70.01
2019-03-06T00:03:55.120Z,69.91
2019-03-06T00:05:04.615Z,69.91
2019-03-06T00:06:19.376Z,69.91
2019-03-06T00:07:29.089Z,70.1
2019-03-06T00:08:38.550Z,69.91
2019-03-06T00:09:48.538Z,70.1
2019-03-06T00:10:58.313Z,69.91
2019-03-06T00:12:08.173Z,70.01
2019-03-06T00:13:17.946Z,69.91
2019-03-06T00:14:28.289Z,69.91
2019-03-06T00:15:38.428Z,70.1
2019-03-06T00:16:47.888Z,69.91
2019-03-06T00:17:57.593Z,70.1
2019-03-06T00:19:07.550Z,70.1
2019-03-06T00:20:17.259Z,70.29
2019-03-06T00:21:27.244Z,69.91
2019-03-06T00:22:36.451Z,69.97
2019-03-06T00:23:46.157Z,70.36
2019-03-06T00:24:55.623Z,70.36
2019-03-06T00:26:05.595Z,70.39
2019-03-06T00:27:15.316Z,70.26
2019-03-06T00:28:24.531Z,70.39
2019-03-06T00:29:34.235Z,70.39
2019-03-06T00:30:43.958Z,70.64
2019-03-06T00:31:53.725Z,70.58
2019-03-06T00:33:03.700Z,70.58
2019-03-06T00:34:13.156Z,70.26
2019-03-06T00:35:23.146Z,70.2
2019-03-06T00:36:32.891Z,70.29
2019-03-06T00:37:42.595Z,70.1
2019-03-06T00:38:52.570Z,70.45
2019-03-06T00:40:02.562Z,70.36
2019-03-06T00:41:12.270Z,69.87
2019-03-06T00:42:21.727Z,70.45
2019-03-06T00:43:31.690Z,70.36
2019-03-06T00:44:41.641Z,70.36
2019-03-06T00:45:51.600Z,70.36
2019-03-06T00:47:01.068Z,70.07
2019-03-06T00:48:11.046Z,70.36
2019-03-06T00:49:20.949Z,70.17
2019-03-06T00:50:31.116Z,70.26
2019-03-06T00:51:41.251Z,70.07
2019-03-06T00:52:51.458Z,70.36
2019-03-06T00:54:01.172Z,69.97
2019-03-06T00:55:10.627Z,70.36
2019-03-06T00:56:20.333Z,70.36
2019-03-06T00:57:30.303Z,70.26
2019-03-06T00:58:39.513Z,70.17
2019-03-06T00:59:48.959Z,69.97
2019-03-06T01:00:58.904Z,70.36
2019-03-06T01:02:08.851Z,70.26
2019-03-06T01:03:18.302Z,69.97
2019-03-06T01:04:28.010Z,70.36
2019-03-06T01:05:37.219Z,70.36
2019-03-06T01:06:46.429Z,70.74
2019-03-06T01:07:56.149Z,70.26
2019-03-06T01:09:06.106Z,70.74
2019-03-06T01:10:15.581Z,70.74
2019-03-06T01:11:25.300Z,70.93
2019-03-06T01:12:35.251Z,70.64
2019-03-06T01:13:45.213Z,70.64
2019-03-06T01:14:54.940Z,70.45
2019-03-06T01:16:04.412Z,70.93
2019-03-06T01:17:13.883Z,70.36
2019-03-06T01:18:23.850Z,70.74
2019-03-06T01:19:33.813Z,70.55
2019-03-06T01:20:43.520Z,70.64
2019-03-06T01:21:53.228Z,70.84
2019-03-06T01:23:02.698Z,70.74
2019-03-06T01:24:12.651Z,70.74
2019-03-06T01:25:22.885Z,70.74
2019-03-06T01:26:32.862Z,70.64
2019-03-06T01:27:43.213Z,70.74
2019-03-06T01:28:53.830Z,70.45
2019-03-06T01:30:03.895Z,70.74
2019-03-06T01:31:13.873Z,70.64
2019-03-06T01:32:23.573Z,70.64
2019-03-06T01:33:33.533Z,70.64
2019-03-06T01:34:42.996Z,70.55
2019-03-06T01:35:52.699Z,70.55
2019-03-06T01:37:02.647Z,70.84
2019-03-06T01:38:12.600Z,70.55
2019-03-06T01:39:21.816Z,70.74
2019-03-06T01:40:31.517Z,70.64
2019-03-06T01:41:41.224Z,70.84
2019-03-06T01:42:50.698Z,70.55
2019-03-06T01:44:00.162Z,70.93
2019-03-06T01:45:09.639Z,70.45
2019-03-06T01:46:19.351Z,70.45
2019-03-06T01:47:29.067Z,70.45
2019-03-06T01:48:38.021Z,70.55
2019-03-06T01:49:47.971Z,70.84
2019-03-06T01:50:57.195Z,70.64
2019-03-06T01:52:06.906Z,70.64
2019-03-06T01:53:16.615Z,70.55
2019-03-06T01:54:26.324Z,70.74
2019-03-06T01:55:36.035Z,70.84
2019-03-06T01:56:45.743Z,70.84
2019-03-06T01:57:55.730Z,70.84
2019-03-06T01:59:06.866Z,70.84
2019-03-06T02:00:16.826Z,70.84
2019-03-06T02:01:27.098Z,70.64
2019-03-06T02:02:37.647Z,70.55
2019-03-06T02:03:47.393Z,70.74
2019-03-06T02:04:57.319Z,70.74
2019-03-06T02:06:07.433Z,70.84
2019-03-06T02:07:17.627Z,70.36
2019-03-06T02:08:27.085Z,70.26
2019-03-06T02:09:36.801Z,70.84
2019-03-06T02:10:46.775Z,70.74
2019-03-06T02:11:56.486Z,70.74
2019-03-06T02:13:06.195Z,70.93
2019-03-06T02:14:15.894Z,70.74
2019-03-06T02:15:25.111Z,70.74
2019-03-06T02:16:35.093Z,70.55
2019-03-06T02:17:44.803Z,70.74
2019-03-06T02:18:54.756Z,70.84
2019-03-06T02:20:04.470Z,70.64
2019-03-06T02:21:14.434Z,70.55
2019-03-06T02:22:24.407Z,70.64
2019-03-06T02:23:34.144Z,70.55
2019-03-06T02:24:43.619Z,70.7
2019-03-06T02:25:53.582Z,70.42
2019-03-06T02:27:03.298Z,70.32
2019-03-06T02:28:13.253Z,70.42
2019-03-06T02:29:22.744Z,70.61
2019-03-06T02:30:32.455Z,70.61
2019-03-06T02:31:42.426Z,70.51
2019-03-06T02:32:52.404Z,70.8
2019-03-06T02:34:01.662Z,70.61
2019-03-06T02:35:11.648Z,70.7
2019-03-06T02:36:21.612Z,70.8
2019-03-06T02:37:31.374Z,70.42
2019-03-06T02:38:41.357Z,70.7
2019-03-06T02:39:51.327Z,70.42
2019-03-06T02:41:01.683Z,70.8
2019-03-06T02:42:11.894Z,70.51
2019-03-06T02:43:22.190Z,70.8
2019-03-06T02:44:33.032Z,70.51
2019-03-06T02:45:45.465Z,70.8
2019-03-06T02:46:55.431Z,71.28
2019-03-06T02:48:05.527Z,70.51
2019-03-06T02:49:15.537Z,70.7
2019-03-06T02:50:25.537Z,70.51
2019-03-06T02:51:35.523Z,70.61
2019-03-06T02:52:45.258Z,70.61
2019-03-06T02:53:55.219Z,70.61
2019-03-06T02:55:04.941Z,70.61
2019-03-06T02:56:14.433Z,70.7
2019-03-06T02:57:24.450Z,70.51
2019-03-06T02:58:33.924Z,71.28
2019-03-06T02:59:43.642Z,70.61
2019-03-06T03:00:53.361Z,70.61
2019-03-06T03:02:03.075Z,71.28
2019-03-06T03:03:12.533Z,70.99
2019-03-06T03:04:22.500Z,70.99
2019-03-06T03:05:32.258Z,70.51
2019-03-06T03:06:41.728Z,70.61
2019-03-06T03:07:51.714Z,70.7
2019-03-06T03:09:01.434Z,71.28
2019-03-06T03:10:11.394Z,71.28
2019-03-06T03:11:21.386Z,71.28
2019-03-06T03:12:31.383Z,71.09
2019-03-06T03:13:40.871Z,70.99
2019-03-06T03:14:50.649Z,71.28
2019-03-06T03:16:00.381Z,71.09
2019-03-06T03:17:10.353Z,71.28
2019-03-06T03:18:20.191Z,70.61
2019-03-06T03:19:30.435Z,70.61
2019-03-06T03:20:40.552Z,70.7
2019-03-06T03:21:50.985Z,71.09
2019-03-06T03:23:01.285Z,71.28
2019-03-06T03:24:11.637Z,70.99
2019-03-06T03:25:21.361Z,71.09
2019-03-06T03:26:31.126Z,71.09
2019-03-06T03:27:41.113Z,70.9
2019-03-06T03:28:50.826Z,71.28
2019-03-06T03:30:00.752Z,70.8
2019-03-06T03:31:10.619Z,71.19
2019-03-06T03:32:20.594Z,70.99
2019-03-06T03:33:30.344Z,71.28
2019-03-06T03:34:40.202Z,71.09
2019-03-06T03:35:49.998Z,71.28
2019-03-06T03:36:59.731Z,70.61
2019-03-06T03:38:09.231Z,71.28
2019-03-06T03:39:19.258Z,71.09
2019-03-06T03:40:29.000Z,71.19
2019-03-06T03:41:38.455Z,70.9
2019-03-06T03:42:48.176Z,70.8
2019-03-06T03:43:58.169Z,71.28
2019-03-06T03:45:08.208Z,70.99
2019-03-06T03:46:18.203Z,70.99
2019-03-06T03:47:28.164Z,70.9
2019-03-06T03:48:38.132Z,71.28
2019-03-06T03:49:48.108Z,70.8
2019-03-06T03:50:57.835Z,70.99
2019-03-06T03:52:07.560Z,71.28
2019-03-06T03:53:17.536Z,71.09
2019-03-06T03:54:27.285Z,70.8
2019-03-06T03:55:37.268Z,70.99
2019-03-06T03:56:47.250Z,71.09
2019-03-06T03:57:57.227Z,71.28
2019-03-06T03:59:06.471Z,71.19
2019-03-06T04:00:16.750Z,70.8
2019-03-06T04:01:27.080Z,70.86
2019-03-06T04:02:37.235Z,71.09
2019-03-06T04:03:47.805Z,71.37
2019-03-06T04:04:58.425Z,71.09
2019-03-06T04:06:08.799Z,71.05
2019-03-06T04:07:18.560Z,70.99
2019-03-06T04:08:27.782Z,70.86
2019-03-06T04:09:37.260Z,71.28
2019-03-06T04:10:47.285Z,70.9
2019-03-06T04:11:57.253Z,71.37
2019-03-06T04:13:06.723Z,70.76
2019-03-06T04:14:16.460Z,71.09
2019-03-06T04:15:26.442Z,71.19
2019-03-06T04:16:36.435Z,70.8
2019-03-06T04:17:45.903Z,71.28
2019-03-06T04:18:55.918Z,70.9
2019-03-06T04:20:05.659Z,70.9
2019-03-06T04:21:15.374Z,71.09
2019-03-06T04:22:24.860Z,71.09
2019-03-06T04:23:34.598Z,71.09
2019-03-06T04:24:44.354Z,71.05
2019-03-06T04:25:54.333Z,70.99
2019-03-06T04:27:04.096Z,71.28
2019-03-06T04:28:14.080Z,70.99
2019-03-06T04:29:23.790Z,71.28
2019-03-06T04:30:33.258Z,71.28
2019-03-06T04:31:42.971Z,71.47
2019-03-06T04:32:52.714Z,70.96
2019-03-06T04:34:02.177Z,70.96
2019-03-06T04:35:12.146Z,71.25
2019-03-06T04:36:22.103Z,70.8
2019-03-06T04:37:31.821Z,71.25
2019-03-06T04:38:43.754Z,70.86
2019-03-06T04:39:53.868Z,71.25
2019-03-06T04:41:03.854Z,70.99
2019-03-06T04:42:13.299Z,71.25
2019-03-06T04:43:23.451Z,71.25
2019-03-06T04:44:33.912Z,71.15
2019-03-06T04:45:44.104Z,70.99
2019-03-06T04:46:53.950Z,71.05
2019-03-06T04:48:03.857Z,71.44
2019-03-06T04:49:13.820Z,71.44
2019-03-06T04:50:23.523Z,71.47
2019-03-06T04:51:33.490Z,71.37
2019-03-06T04:52:43.458Z,70.96
2019-03-06T04:53:53.164Z,71.05
2019-03-06T04:55:02.866Z,71.15
2019-03-06T04:56:12.575Z,71.34
2019-03-06T04:57:22.286Z,71.34
2019-03-06T04:58:32.252Z,71.28
2019-03-06T04:59:41.717Z,71.25
2019-03-06T05:00:51.195Z,71.05
2019-03-06T05:02:01.187Z,71.25
2019-03-06T05:03:10.889Z,71.34
2019-03-06T05:04:20.835Z,71.44
2019-03-06T05:05:30.799Z,71.05
2019-03-06T05:06:40.530Z,70.96
2019-03-06T05:07:50.491Z,71.25
2019-03-06T05:09:00.446Z,71.15
2019-03-06T05:10:09.902Z,70.96
2019-03-06T05:11:19.653Z,70.96
2019-03-06T05:12:29.671Z,70.96
2019-03-06T05:13:39.389Z,70.76
2019-03-06T05:14:49.089Z,71.05
2019-03-06T05:15:59.054Z,71.05
2019-03-06T05:17:08.539Z,70.96
2019-03-06T05:18:18.244Z,70.96
2019-03-06T05:19:28.214Z,71.15
2019-03-06T05:20:38.380Z,70.76
2019-03-06T05:21:48.626Z,71.15
2019-03-06T05:22:58.899Z,70.96
2019-03-06T05:24:09.655Z,70.86
2019-03-06T05:25:20.104Z,71.25
2019-03-06T05:26:29.704Z,71.25
2019-03-06T05:27:39.678Z,71.05
2019-03-06T05:28:49.136Z,71.25
2019-03-06T05:29:59.110Z,71.25
2019-03-06T05:31:08.576Z,70.57
2019-03-06T05:32:18.278Z,71.05
2019-03-06T05:33:28.770Z,71.19
2019-03-06T05:34:38.561Z,71.09
2019-03-06T05:35:48.572Z,71.57
2019-03-06T05:36:58.063Z,71.66
2019-03-06T05:38:07.527Z,72.33
2019-03-06T05:39:17.493Z,72.33
2019-03-06T05:40:26.962Z,72.63
2019-03-06T05:41:36.917Z,72.81
2019-03-06T05:42:46.371Z,72.43
2019-03-06T05:43:55.837Z,72.43
2019-03-06T05:45:05.296Z,71.76
2019-03-06T05:46:15.027Z,71.86
2019-03-06T05:47:24.484Z,71.47
2019-03-06T05:48:33.691Z,71.19
2019-03-06T05:49:43.392Z,71.37
2019-03-06T05:50:52.861Z,71.37
2019-03-06T05:52:02.805Z,71.19
2019-03-06T05:53:12.760Z,71.09
2019-03-06T05:54:22.240Z,71.28
2019-03-06T05:55:31.710Z,71.25
2019-03-06T05:56:41.642Z,71.37
2019-03-06T05:57:51.713Z,71.44
2019-03-06T05:59:01.628Z,71.19
2019-03-06T06:00:11.994Z,71.05
2019-03-06T06:01:22.161Z,70.99
2019-03-06T06:02:32.042Z,70.57
2019-03-06T06:03:41.790Z,70.96
2019-03-06T06:04:51.248Z,71.15
2019-03-06T06:06:00.946Z,71.25
2019-03-06T06:07:10.649Z,70.38
2019-03-06T06:08:20.113Z,70.57
2019-03-06T06:09:29.823Z,70.57
2019-03-06T06:10:39.302Z,70.38
2019-03-06T06:11:48.785Z,70.57
2019-03-06T06:12:58.495Z,70.86
2019-03-06T06:14:07.455Z,71.15
2019-03-06T06:15:16.660Z,71.05
2019-03-06T06:16:26.382Z,70.96
2019-03-06T06:17:35.840Z,70.96
2019-03-06T06:18:45.051Z,71.25
2019-03-06T06:19:54.283Z,70.86
2019-03-06T06:21:03.744Z,71.63
2019-03-06T06:22:13.458Z,71.86
2019-03-06T06:23:23.162Z,72.39
2019-03-06T06:24:32.875Z,72.3
2019-03-06T06:25:42.603Z,72.24
2019-03-06T06:26:52.590Z,72.43
2019-03-06T06:28:02.308Z,72.53
2019-03-06T06:29:11.761Z,73.1
2019-03-06T06:30:22.146Z,72.81
2019-03-06T06:31:31.963Z,72.72
2019-03-06T06:32:41.421Z,72.72
2019-03-06T06:33:50.879Z,72.53
2019-03-06T06:35:00.835Z,72.81
2019-03-06T06:36:09.790Z,72.24
2019-03-06T06:37:19.970Z,72.33
2019-03-06T06:38:30.356Z,72.33
2019-03-06T06:39:42.610Z,71.66
2019-03-06T06:40:52.546Z,71.34
2019-03-06T06:42:02.775Z,70.51
2019-03-06T06:43:12.518Z,69.84
2019-03-06T06:44:21.732Z,69.74
2019-03-06T06:45:31.218Z,68.95
2019-03-06T06:46:40.918Z,68.85
2019-03-06T06:47:50.379Z,70
2019-03-06T06:49:00.330Z,71.25
2019-03-06T06:50:10.985Z,72.59
2019-03-06T06:51:20.949Z,73.35
2019-03-06T06:52:30.671Z,73.39
2019-03-06T06:53:40.403Z,73.2
2019-03-06T06:54:50.098Z,72.91
2019-03-06T06:56:00.073Z,72.63
2019-03-06T06:57:09.575Z,72.68
2019-03-06T06:58:19.034Z,72.39
2019-03-06T06:59:38.490Z,72.24
2019-03-06T07:00:48.205Z,72.43
2019-03-06T07:01:57.915Z,72.33
2019-03-06T07:03:08.047Z,72.49
2019-03-06T07:04:17.568Z,72.01
2019-03-06T07:05:27.750Z,71.25
2019-03-06T07:06:37.980Z,71.72
2019-03-06T07:07:48.327Z,72.01
2019-03-06T07:08:58.578Z,71.92
2019-03-06T07:10:08.267Z,71.82
2019-03-06T07:11:18.272Z,71.44
2019-03-06T07:12:27.472Z,71.72
2019-03-06T07:13:36.943Z,71.82
2019-03-06T07:14:46.655Z,72.14
2019-03-06T07:15:56.111Z,71.82
2019-03-06T07:17:05.562Z,71.82
2019-03-06T07:18:15.519Z,71.86
2019-03-06T07:19:24.980Z,71.82
2019-03-06T07:20:34.223Z,71.86
2019-03-06T07:21:43.934Z,71.72
2019-03-06T07:22:53.892Z,71.76
2019-03-06T07:24:03.869Z,72.01
2019-03-06T07:25:13.823Z,71.92
2019-03-06T07:26:23.779Z,71.76
2019-03-06T07:27:32.733Z,71.63
2019-03-06T07:28:42.452Z,71.92
2019-03-06T07:29:51.913Z,71.63
2019-03-06T07:31:01.871Z,71.95
2019-03-06T07:32:11.569Z,71.72
2019-03-06T07:33:21.284Z,71.76
2019-03-06T07:34:30.749Z,71.63
2019-03-06T07:35:40.462Z,71.95
2019-03-06T07:36:50.440Z,71.72
2019-03-06T07:37:59.890Z,71.82
2019-03-06T07:39:10.023Z,71.66
2019-03-06T07:40:19.844Z,72.01
2019-03-06T07:41:30.172Z,71.95
2019-03-06T07:42:40.598Z,71.76
2019-03-06T07:43:50.527Z,72.01
2019-03-06T07:45:00.488Z,71.86
2019-03-06T07:46:09.951Z,71.76
2019-03-06T07:47:19.416Z,72.11
2019-03-06T07:48:28.626Z,71.76
2019-03-06T07:49:47.458Z,71.76
2019-03-06T07:50:57.185Z,72.14
2019-03-06T07:52:07.144Z,72.11
2019-03-06T07:53:16.617Z,71.86
2019-03-06T07:54:26.342Z,71.72
2019-03-06T07:55:35.809Z,71.95
2019-03-06T07:56:45.267Z,71.86
2019-03-06T07:57:54.981Z,71.95
2019-03-06T07:59:04.705Z,71.95
2019-03-06T08:00:14.409Z,72.05
2019-03-06T08:01:24.376Z,71.66
2019-03-06T08:02:34.338Z,71.95
2019-03-06T08:03:44.061Z,71.86
2019-03-06T08:04:53.763Z,71.66
2019-03-06T08:06:03.769Z,71.66
2019-03-06T08:07:13.987Z,71.95
2019-03-06T08:08:23.879Z,71.95
2019-03-06T08:09:34.249Z,71.86
2019-03-06T08:10:44.663Z,71.66
2019-03-06T08:11:54.934Z,71.66
2019-03-06T08:13:04.698Z,71.82
2019-03-06T08:14:21.976Z,71.66
2019-03-06T08:15:32.247Z,71.86
2019-03-06T08:16:41.711Z,71.95
2019-03-06T08:17:51.655Z,71.72
2019-03-06T08:19:01.611Z,71.66
2019-03-06T08:20:11.065Z,71.57
2019-03-06T08:21:20.780Z,71.66
2019-03-06T08:22:30.477Z,71.66
2019-03-06T08:23:39.926Z,71.66
2019-03-06T08:24:49.135Z,71.92
2019-03-06T08:25:58.865Z,71.37
2019-03-06T08:27:08.599Z,71.57
2019-03-06T08:28:18.069Z,72.05
2019-03-06T08:29:27.778Z,71.92
2019-03-06T08:30:37.492Z,71.95
2019-03-06T08:31:48.413Z,71.76
2019-03-06T08:32:58.402Z,71.86
2019-03-06T08:34:08.144Z,71.86
2019-03-06T08:35:17.604Z,71.66
2019-03-06T08:36:26.836Z,71.66
2019-03-06T08:37:36.787Z,71.57
2019-03-06T08:38:47.019Z,71.66
2019-03-06T08:39:57.412Z,71.66
2019-03-06T08:41:09.845Z,71.95
2019-03-06T08:42:19.303Z,71.66
2019-03-06T08:43:29.260Z,71.86
2019-03-06T08:44:39.235Z,71.66
2019-03-06T08:45:48.776Z,71.66
2019-03-06T08:46:58.727Z,71.66
2019-03-06T08:48:08.191Z,71.57
2019-03-06T08:49:18.137Z,71.76
2019-03-06T08:50:27.850Z,71.76
2019-03-06T08:51:37.058Z,71.66
2019-03-06T08:52:46.761Z,71.57
2019-03-06T08:53:56.725Z,71.57
2019-03-06T08:55:06.182Z,71.76
2019-03-06T08:56:15.914Z,71.86
2019-03-06T08:57:25.134Z,71.47
2019-03-06T08:58:34.867Z,71.76
2019-03-06T08:59:44.335Z,71.37
2019-03-06T09:00:54.038Z,71.66
2019-03-06T09:02:04.042Z,71.66
2019-03-06T09:03:23.159Z,71.57
2019-03-06T09:04:32.877Z,71.47
2019-03-06T09:05:42.096Z,71.66
2019-03-06T09:06:52.822Z,71.66
2019-03-06T09:08:02.882Z,71.66
2019-03-06T09:09:13.145Z,71.76
2019-03-06T09:10:23.198Z,71.57
2019-03-06T09:11:32.703Z,71.76
2019-03-06T09:12:44.515Z,71.37
2019-03-06T09:13:54.486Z,71.66
2019-03-06T09:15:03.977Z,71.86
2019-03-06T09:16:13.465Z,71.66
2019-03-06T09:17:22.923Z,71.76
2019-03-06T09:18:33.897Z,71.47
2019-03-06T09:19:42.850Z,71.47
2019-03-06T09:20:52.814Z,71.19
2019-03-06T09:22:02.533Z,70.99
2019-03-06T09:23:12.500Z,71.09
2019-03-06T09:24:30.485Z,71.47
2019-03-06T09:25:40.203Z,71.66
2019-03-06T09:26:49.911Z,71.47
2019-03-06T09:27:59.619Z,71.19
2019-03-06T09:29:09.072Z,71.28
2019-03-06T09:30:19.739Z,70.99
2019-03-06T09:31:29.539Z,71.76
2019-03-06T09:32:39.501Z,70.9
2019-03-06T09:33:48.960Z,71.57
2019-03-06T09:34:58.442Z,71.47
2019-03-06T09:36:08.154Z,71.57
2019-03-06T09:37:18.552Z,70.99
2019-03-06T09:38:28.586Z,71.09
2019-03-06T09:39:39.072Z,71.57
2019-03-06T09:40:49.188Z,71.09
2019-03-06T09:41:59.154Z,71.57
2019-03-06T09:43:08.863Z,71.28
2019-03-06T09:44:18.584Z,71.09
2019-03-06T09:45:28.313Z,71.19
2019-03-06T09:46:37.536Z,71.09
2019-03-06T09:47:47.247Z,71.19
2019-03-06T09:48:57.210Z,71.09
2019-03-06T09:50:16.353Z,71.19
2019-03-06T09:51:26.054Z,71.09
2019-03-06T09:52:35.792Z,71.37
2019-03-06T09:53:45.524Z,71.47
2019-03-06T09:54:57.467Z,71.76
2019-03-06T09:56:07.430Z,71.57
2019-03-06T09:57:16.884Z,71.47
2019-03-06T09:58:26.609Z,71.09
2019-03-06T09:59:36.320Z,70.9
2019-03-06T10:00:46.278Z,71.28
2019-03-06T10:01:56.247Z,71.57
2019-03-06T10:03:14.495Z,71.09
2019-03-06T10:04:24.838Z,71.28
2019-03-06T10:05:34.844Z,71.09
2019-03-06T10:06:44.796Z,71.09
2019-03-06T10:07:55.097Z,71.28
2019-03-06T10:09:04.605Z,71.47
2019-03-06T10:10:14.565Z,71.09
2019-03-06T10:11:24.047Z,70.99
2019-03-06T10:12:34.002Z,71.09
2019-03-06T10:13:54.576Z,71.47
2019-03-06T10:15:04.038Z,71.47
2019-03-06T10:16:13.746Z,71.28
2019-03-06T10:17:23.449Z,71.57
2019-03-06T10:18:35.501Z,71.09
2019-03-06T10:19:45.291Z,70.99
2019-03-06T10:20:55.280Z,71.09
2019-03-06T10:22:05.036Z,71.47
2019-03-06T10:23:14.778Z,71.47
2019-03-06T10:24:24.295Z,71.09
2019-03-06T10:25:35.015Z,71.12
2019-03-06T10:26:44.799Z,71.09
2019-03-06T10:27:54.789Z,71.09
2019-03-06T10:29:13.978Z,71.09
2019-03-06T10:30:24.001Z,70.99
2019-03-06T10:31:34.249Z,71.19
2019-03-06T10:32:45.995Z,71.09
2019-03-06T10:33:55.815Z,71.47
2019-03-06T10:35:05.881Z,71.47
2019-03-06T10:36:15.194Z,71.09
2019-03-06T10:37:24.803Z,70.99
2019-03-06T10:38:34.907Z,71.09
2019-03-06T10:39:45.215Z,71.09
2019-03-06T10:40:55.068Z,71.09
2019-03-06T10:42:04.888Z,71.22
2019-03-06T10:43:15.713Z,71.09
2019-03-06T10:44:32.151Z,71.47
2019-03-06T10:45:44.455Z,71.22
2019-03-06T10:46:54.236Z,70.99
2019-03-06T10:48:04.758Z,71.61
2019-03-06T10:49:14.832Z,71.28
2019-03-06T10:50:31.138Z,71.31
2019-03-06T10:51:40.918Z,71.22
2019-03-06T10:52:50.460Z,70.9
2019-03-06T10:54:00.039Z,71.19
2019-03-06T10:55:09.913Z,71.31
2019-03-06T10:56:19.465Z,71.12
2019-03-06T10:57:29.530Z,71.22
2019-03-06T10:58:39.376Z,71.22
2019-03-06T10:59:49.989Z,71.09
2019-03-06T11:00:59.844Z,71.61
2019-03-06T11:02:09.556Z,71.22
2019-03-06T11:03:19.465Z,71.12
2019-03-06T11:04:29.546Z,71.12
2019-03-06T11:05:39.570Z,71.22
2019-03-06T11:06:49.649Z,71.22
2019-03-06T11:07:59.743Z,71.22
2019-03-06T11:09:09.330Z,71.22
2019-03-06T11:10:28.359Z,71.22
2019-03-06T11:11:39.134Z,71.22
2019-03-06T11:12:48.932Z,71.22
2019-03-06T11:14:05.895Z,71.31
2019-03-06T11:15:16.405Z,71.12
2019-03-06T11:16:27.413Z,71.12
2019-03-06T11:17:43.511Z,71.31
2019-03-06T11:18:54.290Z,71.22
2019-03-06T11:20:04.992Z,71.12
2019-03-06T11:21:14.783Z,71.22
2019-03-06T11:22:24.019Z,71.22
2019-03-06T11:23:33.746Z,71.12
2019-03-06T11:24:43.456Z,71.22
2019-03-06T11:25:53.253Z,71.41
2019-03-06T11:27:04.895Z,71.61
2019-03-06T11:28:14.710Z,71.41
2019-03-06T11:29:24.238Z,71.12
2019-03-06T11:30:34.015Z,71.22
2019-03-06T11:31:44.004Z,71.41
2019-03-06T11:32:57.030Z,71.12
2019-03-06T11:34:07.056Z,71.31
2019-03-06T11:35:17.040Z,71.12
2019-03-06T11:36:26.542Z,71.03
2019-03-06T11:37:36.304Z,71.22
2019-03-06T11:38:46.837Z,71.12
2019-03-06T11:39:56.839Z,71.31
2019-03-06T11:41:07.645Z,71.12
2019-03-06T11:42:17.425Z,71.03
2019-03-06T11:43:27.438Z,71.12
2019-03-06T11:44:36.439Z,71.12
2019-03-06T11:45:46.455Z,71.12
2019-03-06T11:46:56.446Z,71.12
2019-03-06T11:48:06.674Z,71.12
2019-03-06T11:49:16.420Z,71.22
2019-03-06T11:50:26.196Z,71.12
2019-03-06T11:51:44.162Z,71.31
2019-03-06T11:52:54.286Z,71.41
2019-03-06T11:54:04.437Z,71.03
2019-03-06T11:55:14.214Z,71.31
2019-03-06T11:56:24.437Z,71.31
2019-03-06T11:57:36.033Z,71.12
2019-03-06T11:58:46.208Z,71.51
2019-03-06T11:59:55.792Z,71.03
2019-03-06T12:01:05.862Z,71.12
2019-03-06T12:02:15.633Z,71.31
2019-03-06T12:03:25.166Z,71.51
2019-03-06T12:04:35.163Z,71.51
2019-03-06T12:05:44.952Z,71.7
2019-03-06T12:06:54.233Z,71.51
2019-03-06T12:08:04.302Z,71.7
2019-03-06T12:09:13.819Z,71.41
2019-03-06T12:10:23.623Z,71.41
2019-03-06T12:11:34.329Z,71.03
2019-03-06T12:12:44.373Z,71.12
2019-03-06T12:13:54.116Z,71.12
2019-03-06T12:15:03.898Z,71.12
2019-03-06T12:16:13.703Z,71.22
2019-03-06T12:17:23.503Z,71.03
2019-03-06T12:18:34.195Z,71.41
2019-03-06T12:19:44.002Z,71.41
2019-03-06T12:20:54.089Z,71.22
2019-03-06T12:22:03.885Z,71.31
2019-03-06T12:23:13.167Z,71.22
2019-03-06T12:24:23.187Z,71.7
2019-03-06T12:25:32.702Z,71.7
2019-03-06T12:26:42.436Z,71.7
2019-03-06T12:27:52.175Z,71.41
2019-03-06T12:29:02.214Z,71.7
2019-03-06T12:30:11.965Z,71.51
2019-03-06T12:31:21.357Z,71.41
2019-03-06T12:32:30.860Z,71.12
2019-03-06T12:33:40.373Z,71.03
2019-03-06T12:34:49.613Z,71.12
2019-03-06T12:35:59.337Z,71.61
2019-03-06T12:37:10.982Z,71.41
2019-03-06T12:38:20.717Z,71.61
2019-03-06T12:39:30.217Z,71.12
2019-03-06T12:40:39.929Z,71.22
2019-03-06T12:41:49.691Z,71.7
2019-03-06T12:42:59.443Z,71.51
2019-03-06T12:44:13.036Z,71.8
2019-03-06T12:45:22.763Z,71.41
2019-03-06T12:46:34.627Z,71.03
2019-03-06T12:47:44.383Z,71.22
2019-03-06T12:49:04.194Z,71.51
2019-03-06T12:50:14.259Z,71.03
2019-03-06T12:51:24.234Z,71.31
2019-03-06T12:52:33.708Z,71.22
2019-03-06T12:53:43.442Z,71.03
2019-03-06T12:54:53.453Z,71.51
2019-03-06T12:56:03.431Z,71.22
2019-03-06T12:57:12.966Z,71.22
2019-03-06T12:58:22.694Z,71.22
2019-03-06T12:59:33.797Z,71.03
2019-03-06T13:00:43.081Z,71.41
2019-03-06T13:01:53.086Z,71.22
2019-03-06T13:03:02.304Z,71.31
2019-03-06T13:04:12.063Z,71.7
2019-03-06T13:05:23.391Z,71.61
2019-03-06T13:06:33.419Z,71.64
2019-03-06T13:07:42.987Z,71.35
2019-03-06T13:08:53.381Z,71.35
2019-03-06T13:10:04.226Z,70.97
2019-03-06T13:11:14.006Z,70.97
2019-03-06T13:12:23.759Z,71.16
2019-03-06T13:13:38.065Z,71.35
2019-03-06T13:14:48.083Z,70.68
2019-03-06T13:15:57.607Z,70.49
2019-03-06T13:17:07.393Z,70.87
2019-03-06T13:18:17.169Z,70.49
2019-03-06T13:19:27.186Z,70.49
2019-03-06T13:20:36.920Z,70.39
2019-03-06T13:21:46.154Z,70.58
2019-03-06T13:22:55.687Z,71.25
2019-03-06T13:24:06.952Z,71.77
2019-03-06T13:25:16.503Z,72.69
2019-03-06T13:26:26.507Z,73.31
2019-03-06T13:27:36.276Z,73.85
2019-03-06T13:28:46.283Z,74.62
2019-03-06T13:30:04.744Z,75.48
2019-03-06T13:31:14.034Z,75.57
2019-03-06T13:32:24.315Z,76.15
2019-03-06T13:33:34.021Z,76.54
2019-03-06T13:34:53.360Z,76.86
2019-03-06T13:36:02.987Z,76.96
2019-03-06T13:37:12.750Z,77.34
2019-03-06T13:38:22.507Z,77.34
2019-03-06T13:39:32.558Z,77.73
2019-03-06T13:40:42.297Z,77.63
2019-03-06T13:41:52.072Z,78.11
2019-03-06T13:43:01.848Z,78.4
2019-03-06T13:44:11.847Z,77.92
2019-03-06T13:45:22.019Z,78.21
2019-03-06T13:46:31.776Z,78.17
2019-03-06T13:47:41.300Z,78.08
2019-03-06T13:48:51.298Z,78.17
2019-03-06T13:50:01.331Z,77.34
2019-03-06T13:51:10.611Z,76.96
2019-03-06T13:52:20.655Z,76.57
2019-03-06T13:53:30.659Z,76.57
2019-03-06T13:54:40.447Z,76.39
2019-03-06T13:55:52.278Z,76.29
2019-03-06T13:57:02.061Z,76.19
2019-03-06T13:58:12.075Z,75.9
2019-03-06T13:59:21.845Z,75.29
2019-03-06T14:00:31.866Z,75.62
2019-03-06T14:01:41.372Z,75.57
2019-03-06T14:02:51.391Z,75.71
2019-03-06T14:04:01.180Z,75.48
2019-03-06T14:05:11.219Z,75.52
2019-03-06T14:06:21.013Z,75.2
2019-03-06T14:07:30.783Z,75.13
2019-03-06T14:08:40.551Z,74.94
2019-03-06T14:09:50.061Z,74.9
2019-03-06T14:10:59.083Z,75.04
2019-03-06T14:12:09.083Z,74.81
2019-03-06T14:13:18.610Z,74.85
2019-03-06T14:14:28.140Z,74.9
2019-03-06T14:15:37.654Z,74.43
2019-03-06T14:16:58.267Z,74.55
2019-03-06T14:18:07.500Z,74.17
2019-03-06T14:19:16.776Z,74.46
2019-03-06T14:20:26.319Z,74.46
2019-03-06T14:21:36.096Z,74.65
2019-03-06T14:22:46.102Z,74.62
2019-03-06T14:23:55.649Z,74.71
2019-03-06T14:25:05.142Z,74.13
2019-03-06T14:26:14.916Z,74.23
2019-03-06T14:27:26.187Z,74.33
2019-03-06T14:28:36.776Z,74.04
2019-03-06T14:29:47.331Z,74.17
2019-03-06T14:30:59.397Z,74.08
2019-03-06T14:32:17.006Z,73.98
2019-03-06T14:33:26.526Z,74.04
2019-03-06T14:34:36.543Z,74.04
2019-03-06T14:35:46.573Z,73.46
2019-03-06T14:36:56.612Z,73.27
2019-03-06T14:38:06.896Z,73.6
2019-03-06T14:39:16.749Z,73.41
2019-03-06T14:40:26.775Z,73.11
2019-03-06T14:41:36.293Z,73.21
2019-03-06T14:42:46.053Z,73.21
2019-03-06T14:43:56.126Z,73.5
2019-03-06T14:45:06.139Z,73.11
2019-03-06T14:46:19.119Z,73.11
2019-03-06T14:47:28.380Z,73.11
2019-03-06T14:48:37.657Z,73.11
2019-03-06T14:49:47.700Z,73.11
2019-03-06T14:50:57.236Z,73.31
2019-03-06T14:52:10.029Z,73.31
2019-03-06T14:53:19.778Z,73.02
2019-03-06T14:54:29.293Z,72.79
2019-03-06T14:55:39.321Z,72.73
2019-03-06T14:56:48.834Z,72.92
2019-03-06T14:57:58.598Z,72.92
2019-03-06T14:59:07.913Z,72.92
2019-03-06T15:00:17.419Z,73.21
2019-03-06T15:01:27.175Z,73.11
2019-03-06T15:02:36.940Z,72.83
2019-03-06T15:03:46.826Z,72.83
2019-03-06T15:04:56.999Z,73.21